Time;durP1;ratioP1;P1;durP2;ratioP2;P2;SDS_P1;SDS_P2;PMS_P1;PMS_P2;Temp;Humidity;BMP_temperature;BMP_pressure;BME280_temperature;BME280_humidity;BME280_pressure;Samples;Min_cycle;Max_cycle;Signal;HPM_P1;HPM_P2
2021/12/06 00:01:22;;;;;;;11.43;5.23;;;-0.50;1.00;196.50;224877.00;;;;4941246;29;20246;-91
2021/12/06 00:04:02;;;;;;;8.20;5.47;;;-0.50;1.00;196.50;224877.00;;;;4941690;29;20219;-92
2021/12/06 00:06:34;;;;;;;9.57;5.27;;;-0.50;1.00;196.50;224877.00;;;;4938248;29;20195;-92
2021/12/06 00:09:07;;;;;;;7.53;4.60;;;-0.50;1.00;196.50;224877.00;;;;4911928;29;20611;-93
2021/12/06 00:11:35;;;;;;;8.40;4.97;;;-0.50;1.00;196.50;224877.00;;;;4922407;29;20294;-93
2021/12/06 00:14:03;;;;;;;8.90;5.03;;;-0.40;1.00;196.50;224877.00;;;;4936990;29;20224;-91
2021/12/06 00:16:32;;;;;;;14.97;4.77;;;-0.40;1.00;196.50;224877.00;;;;4953562;28;20196;-92
2021/12/06 00:19:04;;;;;;;10.90;5.43;;;-0.40;1.00;196.50;224877.00;;;;4931258;29;20223;-94
2021/12/06 00:21:34;;;;;;;12.60;5.37;;;-0.40;1.00;196.50;224877.00;;;;4940742;29;20199;-92
2021/12/06 00:24:02;;;;;;;8.70;5.60;;;-0.40;1.00;196.50;224877.00;;;;4956663;28;20203;-92
2021/12/06 00:26:29;;;;;;;11.40;6.47;;;-0.40;1.00;196.50;224877.00;;;;4956494;29;20198;-91
2021/12/06 00:28:58;;;;;;;13.03;6.37;;;-0.30;1.00;196.50;224877.00;;;;4953689;28;20671;-92
2021/12/06 00:31:31;;;;;;;10.43;5.97;;;-0.30;1.00;196.50;224877.00;;;;4933370;29;20203;-93
2021/12/06 00:34:07;;;;;;;10.33;5.73;;;-0.30;1.00;196.50;224877.00;;;;4937511;29;20283;-93
2021/12/06 00:36:39;;;;;;;13.87;6.47;;;-0.30;1.00;196.50;224877.00;;;;4937464;29;20210;-92
2021/12/06 00:39:12;;;;;;;9.40;6.37;;;-0.30;1.00;196.50;224877.00;;;;4937663;29;20200;-92
2021/12/06 00:41:40;;;;;;;8.20;6.23;;;-0.30;1.00;196.50;224877.00;;;;4947327;29;20570;-92
2021/12/06 00:44:08;;;;;;;11.13;6.80;;;-0.30;1.00;196.50;224877.00;;;;4968407;28;20290;-93
2021/12/06 00:46:39;;;;;;;11.57;7.10;;;-0.30;1.00;196.50;224877.00;;;;4956362;29;20199;-92
2021/12/06 00:49:09;;;;;;;14.03;7.00;;;-0.30;1.00;196.50;224877.00;;;;4956832;28;20238;-93
2021/12/06 00:51:37;;;;;;;12.47;7.33;;;-0.30;1.00;196.50;224877.00;;;;4936318;29;20203;-92
2021/12/06 00:54:04;;;;;;;13.13;6.93;;;-0.20;1.00;196.50;224877.00;;;;4938120;29;20290;-93
2021/12/06 00:56:32;;;;;;;13.20;7.70;;;-0.30;1.00;196.50;224877.00;;;;4940166;29;20195;-93
2021/12/06 00:58:59;;;;;;;14.67;7.30;;;-0.20;1.00;196.50;224877.00;;;;4940563;28;20191;-93
2021/12/06 01:01:26;;;;;;;14.67;7.10;;;-0.20;1.00;196.50;224877.00;;;;4953321;28;20224;-92
2021/12/06 01:03:54;;;;;;;11.97;6.57;;;-0.20;1.00;196.50;224877.00;;;;4936340;28;20202;-93
2021/12/06 01:06:21;;;;;;;14.90;6.50;;;-0.20;1.00;196.50;224877.00;;;;4939793;29;20206;-92
2021/12/06 01:08:48;;;;;;;10.10;7.00;;;-0.20;1.00;196.50;224877.00;;;;4949363;29;20192;-92
2021/12/06 01:11:16;;;;;;;9.37;5.93;;;-0.20;1.00;196.50;224877.00;;;;4946239;28;20604;-92
2021/12/06 01:13:43;;;;;;;7.30;5.70;;;-0.20;1.00;196.50;224877.00;;;;4940013;29;20226;-94
2021/12/06 01:16:10;;;;;;;10.03;5.90;;;-0.20;1.00;196.50;224877.00;;;;4940695;28;20299;-93
2021/12/06 01:18:38;;;;;;;13.07;6.30;;;-0.20;1.00;196.50;224877.00;;;;4940569;29;20266;-93
2021/12/06 01:29:15;;;;;;;9.70;5.90;;;-0.20;1.00;196.50;224877.00;;;;4978776;28;20191;-93
2021/12/06 01:39:53;;;;;;;12.67;6.60;;;-0.40;1.00;196.50;224877.00;;;;4962748;28;20738;-94
2021/12/06 01:42:20;;;;;;;11.60;7.03;;;-0.40;1.00;196.50;224877.00;;;;4946373;28;20229;-93
2021/12/06 01:44:56;;;;;;;10.90;6.27;;;-0.30;1.00;196.50;224877.00;;;;4946675;28;20614;-93
2021/12/06 01:47:32;;;;;;;11.40;6.60;;;-0.30;1.00;196.50;224877.00;;;;4963299;28;20278;-93
2021/12/06 01:50:07;;;;;;;13.37;6.87;;;-0.30;1.00;196.50;224877.00;;;;4946736;29;20206;-93
2021/12/06 01:52:42;;;;;;;12.27;6.97;;;-0.40;1.00;196.50;224877.00;;;;4947593;29;20200;-93
2021/12/06 01:55:16;;;;;;;14.33;6.23;;;-0.40;1.00;196.50;224877.00;;;;4963339;29;20215;-92
2021/12/06 01:57:43;;;;;;;11.00;6.53;;;-0.30;1.00;196.50;224877.00;;;;4963158;28;20243;-93
2021/12/06 02:00:27;;;;;;;10.03;6.93;;;-0.30;1.00;196.50;224877.00;;;;4946469;28;20210;-91
2021/12/06 02:02:55;;;;;;;10.40;6.50;;;-0.40;1.00;196.50;224877.00;;;;4962827;28;20744;-92
2021/12/06 02:05:23;;;;;;;11.80;6.13;;;-0.40;1.00;196.50;224877.00;;;;4962342;28;20202;-93
2021/12/06 02:07:50;;;;;;;12.93;5.90;;;-0.40;1.00;196.50;224877.00;;;;4962834;29;20289;-93
2021/12/06 02:10:18;;;;;;;16.03;7.00;;;-0.40;1.00;196.50;224877.00;;;;4979557;28;20222;-92
2021/12/06 02:12:48;;;;;;;11.80;6.73;;;-0.40;1.00;196.50;224877.00;;;;4962641;28;20212;-92
2021/12/06 02:15:52;;;;;;;9.43;6.53;;;-0.30;1.00;196.50;224877.00;;;;4946473;29;20261;-93
2021/12/06 02:18:39;;;;;;;11.70;6.90;;;-0.30;1.00;196.50;224877.00;;;;4960314;28;20199;-93
2021/12/06 02:21:33;;;;;;;10.60;6.83;;;-0.30;1.00;196.50;224877.00;;;;4962352;28;20261;-93
2021/12/06 02:24:07;;;;;;;13.33;7.20;;;-0.30;1.00;196.50;224877.00;;;;4944288;29;20207;-93
2021/12/06 02:26:37;;;;;;;11.57;6.80;;;-0.30;1.00;196.50;224877.00;;;;4945657;29;20199;-92
2021/12/06 02:29:06;;;;;;;13.70;7.13;;;-0.30;1.00;196.50;224877.00;;;;4946752;28;20207;-93
2021/12/06 02:31:35;;;;;;;12.60;7.57;;;-0.30;1.00;196.50;224877.00;;;;4946545;29;20199;-93
2021/12/06 02:34:04;;;;;;;17.57;7.33;;;-0.30;1.00;196.50;224877.00;;;;4962582;28;20576;-93
2021/12/06 02:36:32;;;;;;;13.60;7.63;;;-0.30;1.00;196.50;224877.00;;;;4942559;29;20675;-90
2021/12/06 02:39:00;;;;;;;14.93;7.53;;;-0.30;1.00;196.50;224877.00;;;;4943146;29;20206;-90
2021/12/06 02:41:29;;;;;;;10.07;6.20;;;-0.30;1.00;196.50;224877.00;;;;4943606;29;20246;-92
2021/12/06 02:43:56;;;;;;;13.37;6.60;;;-0.30;1.00;196.50;224877.00;;;;4942966;29;20195;-93
2021/12/06 02:46:24;;;;;;;11.30;6.53;;;-0.30;1.00;196.50;224877.00;;;;4942723;28;20250;-93
2021/12/06 02:48:51;;;;;;;14.33;7.67;;;-0.30;1.00;196.50;224877.00;;;;4943033;29;20302;-93
2021/12/06 02:51:20;;;;;;;11.77;7.57;;;-0.40;1.00;196.50;224877.00;;;;4942358;28;20203;-92
2021/12/06 02:53:48;;;;;;;12.47;7.13;;;-0.30;1.00;196.50;224877.00;;;;4942176;29;20246;-93
2021/12/06 02:56:28;;;;;;;15.90;7.10;;;-0.30;1.00;196.50;224877.00;;;;4942480;28;20203;-92
2021/12/06 02:59:02;;;;;;;11.97;6.30;;;-0.30;1.00;196.50;224877.00;;;;4958574;29;20666;-93
2021/12/06 03:01:44;;;;;;;16.03;6.67;;;-0.40;1.00;196.50;224877.00;;;;4942312;28;20227;-93
2021/12/06 03:04:12;;;;;;;11.70;6.23;;;-0.30;1.00;196.50;224877.00;;;;4942509;29;20207;-92
2021/12/06 03:06:41;;;;;;;10.10;6.23;;;-0.40;1.00;196.50;224877.00;;;;4942328;29;20543;-93
2021/12/06 03:09:16;;;;;;;14.33;6.67;;;-0.40;1.00;196.50;224877.00;;;;4941809;28;20203;-92
2021/12/06 03:12:01;;;;;;;13.07;6.27;;;-0.40;1.00;196.50;224877.00;;;;4957583;29;20210;-92
2021/12/06 03:14:44;;;;;;;9.97;5.63;;;-0.40;1.00;196.50;224877.00;;;;4942448;28;20251;-92
2021/12/06 03:17:17;;;;;;;15.23;7.00;;;-0.30;1.00;196.50;224877.00;;;;4958512;29;20195;-93
2021/12/06 03:19:45;;;;;;;14.27;6.57;;;-0.30;1.00;196.50;224877.00;;;;4943003;29;20199;-94
2021/12/06 03:22:15;;;;;;;11.50;5.97;;;-0.30;1.00;196.50;224877.00;;;;4942165;29;20199;-92
2021/12/06 03:24:44;;;;;;;10.77;6.23;;;-0.30;1.00;196.50;224877.00;;;;4942131;28;20206;-94
2021/12/06 03:27:13;;;;;;;11.90;5.67;;;-0.30;1.00;196.50;224877.00;;;;4942670;29;20200;-94
2021/12/06 03:29:40;;;;;;;9.87;5.77;;;-0.40;1.00;196.50;224877.00;;;;4943143;29;20199;-94
2021/12/06 03:32:08;;;;;;;9.37;6.17;;;-0.30;1.00;196.50;224877.00;;;;4942678;29;20195;-93
2021/12/06 03:34:36;;;;;;;10.00;6.03;;;-0.40;1.00;196.50;224877.00;;;;4942201;29;20223;-93
2021/12/06 03:37:07;;;;;;;11.83;6.07;;;-0.30;1.00;196.50;224877.00;;;;4942090;29;20199;-92
2021/12/06 03:39:47;;;;;;;9.60;6.07;;;-0.30;1.00;196.50;224877.00;;;;4957545;29;20195;-94
2021/12/06 03:42:22;;;;;;;10.13;6.60;;;-0.30;1.00;196.50;224877.00;;;;4957595;28;20203;-93
2021/12/06 03:44:51;;;;;;;13.57;6.33;;;-0.30;1.00;196.50;224877.00;;;;4941803;28;20209;-92
2021/12/06 03:47:26;;;;;;;12.97;6.40;;;-0.30;1.00;196.50;224877.00;;;;4957051;28;20195;-93
2021/12/06 03:49:54;;;;;;;9.37;6.43;;;-0.30;1.00;196.50;224877.00;;;;4942199;28;20261;-93
2021/12/06 03:52:22;;;;;;;15.03;7.27;;;-0.30;1.00;196.50;224877.00;;;;4941615;29;20262;-92
2021/12/06 03:54:50;;;;;;;11.63;6.57;;;-0.30;1.00;196.50;224877.00;;;;4940686;29;20285;-92
2021/12/06 03:57:19;;;;;;;11.33;6.93;;;-0.30;1.00;196.50;224877.00;;;;4941631;29;20203;-93
2021/12/06 03:59:48;;;;;;;15.53;7.57;;;-0.20;1.00;196.50;224877.00;;;;4941712;29;20689;-92
2021/12/06 04:02:16;;;;;;;13.37;7.40;;;-0.30;1.00;196.50;224877.00;;;;4940437;29;20215;-92
2021/12/06 04:04:44;;;;;;;15.83;7.10;;;-0.20;1.00;196.50;224877.00;;;;4940341;29;20195;-93
2021/12/06 04:07:12;;;;;;;15.17;7.67;;;-0.20;1.00;196.50;224877.00;;;;4941186;28;20203;-93
2021/12/06 04:09:39;;;;;;;14.27;7.97;;;-0.30;1.00;196.50;224877.00;;;;4941017;29;20231;-91
2021/12/06 04:12:09;;;;;;;12.07;8.00;;;-0.20;1.00;196.50;224877.00;;;;4956922;28;20245;-92
2021/12/06 04:14:39;;;;;;;13.57;7.43;;;-0.20;1.00;196.50;224877.00;;;;4941428;29;20229;-93
2021/12/06 04:17:07;;;;;;;12.70;7.80;;;-0.20;1.00;196.50;224877.00;;;;4956970;28;20247;-92
2021/12/06 04:19:34;;;;;;;13.97;8.40;;;-0.20;1.00;196.50;224877.00;;;;4941571;29;20226;-92
2021/12/06 04:22:05;;;;;;;14.63;7.63;;;-0.20;1.00;196.50;224877.00;;;;4941477;29;20215;-93
2021/12/06 04:24:32;;;;;;;17.33;7.90;;;-0.20;1.00;196.50;224877.00;;;;4941177;29;20203;-91
2021/12/06 04:27:12;;;;;;;14.03;7.77;;;-0.20;1.00;196.50;224877.00;;;;4956947;28;20199;-92
2021/12/06 04:29:50;;;;;;;17.00;8.23;;;-0.20;1.00;196.50;224877.00;;;;4957713;29;20176;-92
2021/12/06 04:32:17;;;;;;;13.13;7.87;;;-0.20;1.00;196.50;224877.00;;;;4941376;29;20183;-95
2021/12/06 04:34:45;;;;;;;14.83;8.17;;;-0.20;1.00;196.50;224877.00;;;;4954244;28;20227;-94
2021/12/06 04:37:13;;;;;;;13.40;7.50;;;-0.20;1.00;196.50;224877.00;;;;4932315;29;20207;-92
2021/12/06 04:39:41;;;;;;;12.60;6.80;;;-0.20;1.00;196.50;224877.00;;;;4921929;29;20586;-93
2021/12/06 04:42:09;;;;;;;13.43;8.00;;;-0.20;1.00;196.50;224877.00;;;;4951762;29;20196;-94
2021/12/06 04:44:37;;;;;;;13.07;8.17;;;-0.10;1.00;196.50;224877.00;;;;4940168;28;20203;-92
2021/12/06 04:47:06;;;;;;;12.20;7.73;;;-0.20;1.00;196.50;224877.00;;;;4939749;29;20203;-93
2021/12/06 04:49:33;;;;;;;10.93;7.77;;;-0.20;1.00;196.50;224877.00;;;;4940188;29;20230;-94
2021/12/06 04:52:06;;;;;;;12.87;8.27;;;-0.20;1.00;196.50;224877.00;;;;4939612;29;20694;-93
2021/12/06 04:54:39;;;;;;;14.17;8.23;;;-0.30;1.00;196.50;224877.00;;;;4937153;29;20215;-93
2021/12/06 04:57:30;;;;;;;14.17;7.97;;;-0.20;1.00;196.50;224877.00;;;;4921237;29;20259;-93
2021/12/06 05:00:14;;;;;;;14.47;7.87;;;-0.20;1.00;196.50;224877.00;;;;4920918;29;20194;-94
2021/12/06 05:02:43;;;;;;;11.50;7.67;;;-0.20;1.00;196.50;224877.00;;;;4947847;29;20196;-94
2021/12/06 05:05:34;;;;;;;13.53;7.27;;;-0.30;1.00;196.50;224877.00;;;;4936521;29;20571;-92
2021/12/06 05:08:15;;;;;;;11.40;6.63;;;-0.30;1.00;196.50;224877.00;;;;4937884;29;20220;-93
2021/12/06 05:10:44;;;;;;;11.73;6.87;;;-0.30;1.00;196.50;224877.00;;;;4934251;29;20203;-93
2021/12/06 05:13:13;;;;;;;10.47;6.73;;;-0.30;1.00;196.50;224877.00;;;;4920351;29;20234;-91
2021/12/06 05:15:46;;;;;;;14.30;6.73;;;-0.30;1.00;196.50;224877.00;;;;4920606;29;20228;-93
2021/12/06 05:18:14;;;;;;;13.00;6.90;;;-0.30;1.00;196.50;224877.00;;;;4921406;29;20199;-92
2021/12/06 05:20:41;;;;;;;11.67;7.27;;;-0.20;1.00;196.50;224877.00;;;;4921201;29;20204;-93
2021/12/06 05:23:10;;;;;;;12.53;8.17;;;-0.20;1.00;196.50;224877.00;;;;4921118;29;20667;-93
2021/12/06 05:25:39;;;;;;;12.40;8.07;;;-0.20;1.00;196.50;224877.00;;;;4935152;29;20204;-92
2021/12/06 05:28:06;;;;;;;11.03;7.50;;;-0.20;1.00;196.50;224877.00;;;;4919794;29;20598;-93
2021/12/06 05:30:36;;;;;;;11.80;7.73;;;-0.20;1.00;196.50;224877.00;;;;4952721;29;20200;-91
2021/12/06 05:33:06;;;;;;;13.33;7.70;;;-0.20;1.00;196.50;224877.00;;;;4921665;29;20202;-95
2021/12/06 05:35:34;;;;;;;10.53;6.70;;;-0.20;1.00;196.50;224877.00;;;;4921658;29;20227;-93
2021/12/06 05:38:02;;;;;;;14.80;7.23;;;-0.20;1.00;196.50;224877.00;;;;4921532;29;20195;-92
2021/12/06 05:40:34;;;;;;;10.17;6.50;;;-0.20;1.00;196.50;224877.00;;;;4936872;29;20199;-92
2021/12/06 05:43:03;;;;;;;14.20;6.97;;;-0.20;1.00;196.50;224877.00;;;;4941611;29;20238;-92
2021/12/06 05:45:33;;;;;;;9.70;6.93;;;-0.20;1.00;196.50;224877.00;;;;4940222;29;20199;-94
2021/12/06 05:48:00;;;;;;;12.03;7.07;;;-0.20;1.00;196.50;224877.00;;;;4940259;29;20693;-93
2021/12/06 05:50:27;;;;;;;10.93;7.03;;;-0.20;1.00;196.50;224877.00;;;;4940042;29;20262;-92
2021/12/06 05:52:56;;;;;;;10.33;7.03;;;-0.20;1.00;196.50;224877.00;;;;4940009;29;20258;-93
2021/12/06 05:55:27;;;;;;;11.13;7.47;;;-0.20;1.00;196.50;224877.00;;;;4955537;29;20219;-92
2021/12/06 05:58:03;;;;;;;11.37;7.37;;;-0.20;1.00;196.50;224877.00;;;;4939431;29;20205;-90
2021/12/06 06:00:32;;;;;;;8.83;6.73;;;-0.20;1.00;196.50;224877.00;;;;4940297;28;20212;-92
2021/12/06 06:03:06;;;;;;;10.47;7.17;;;-0.20;1.00;196.50;224877.00;;;;4925098;29;20195;-92
2021/12/06 06:05:38;;;;;;;14.37;8.13;;;-0.20;1.00;196.50;224877.00;;;;4940873;29;20266;-93
2021/12/06 06:08:07;;;;;;;16.10;8.37;;;-0.20;1.00;196.50;224877.00;;;;4936763;29;20239;-92
2021/12/06 06:10:35;;;;;;;13.17;7.63;;;-0.20;1.00;196.50;224877.00;;;;4922752;29;20223;-92
2021/12/06 06:13:05;;;;;;;13.40;7.43;;;-0.20;1.00;196.50;224877.00;;;;4925797;29;20687;-92
2021/12/06 06:15:34;;;;;;;11.50;6.67;;;-0.30;1.00;196.50;224877.00;;;;4924779;29;20312;-92
2021/12/06 06:18:02;;;;;;;11.30;7.83;;;-0.20;1.00;196.50;224877.00;;;;4925166;29;20204;-93
2021/12/06 06:20:49;;;;;;;12.70;7.60;;;-0.30;1.00;196.50;224877.00;;;;4908928;29;20192;-92
2021/12/06 06:23:23;;;;;;;13.60;7.87;;;-0.30;1.00;196.50;224877.00;;;;4926359;29;20226;-93
2021/12/06 06:25:51;;;;;;;12.80;7.93;;;-0.30;1.00;196.50;224877.00;;;;4926411;29;20203;-92
2021/12/06 06:28:18;;;;;;;14.37;7.27;;;-0.30;1.00;196.50;224877.00;;;;4925989;29;20210;-93
2021/12/06 06:30:45;;;;;;;12.37;7.50;;;-0.30;1.00;196.50;224877.00;;;;4924591;29;20259;-93
2021/12/06 06:33:13;;;;;;;12.33;7.83;;;-0.30;1.00;196.50;224877.00;;;;4940148;29;20201;-90
2021/12/06 06:36:15;;;;;;;11.00;7.20;;;-0.30;1.00;196.50;224877.00;;;;4923681;29;20783;-94
2021/12/06 06:39:22;;;;;;;10.63;7.00;;;-0.30;1.00;196.50;224877.00;;;;4867943;29;20581;-93
2021/12/06 06:42:25;;;;;;;12.10;7.20;;;-0.30;1.00;196.50;224877.00;;;;4861028;29;20202;-92
2021/12/06 06:44:55;;;;;;;12.90;7.80;;;-0.30;1.00;196.50;224877.00;;;;4881648;29;20297;-93
2021/12/06 06:47:24;;;;;;;12.57;7.40;;;-0.20;1.00;196.50;224877.00;;;;4852007;29;20615;-93
2021/12/06 06:49:59;;;;;;;13.13;7.60;;;-0.20;1.00;196.50;224877.00;;;;4881577;29;20245;-91
2021/12/06 06:52:35;;;;;;;14.70;7.83;;;-0.20;1.00;196.50;224877.00;;;;4868290;29;20202;-92
2021/12/06 06:55:09;;;;;;;14.77;8.40;;;-0.20;1.00;196.50;224877.00;;;;4882793;29;20311;-92
2021/12/06 06:57:47;;;;;;;14.60;8.53;;;-0.20;1.00;196.50;224877.00;;;;4922343;29;20558;-93
2021/12/06 07:00:22;;;;;;;16.00;8.80;;;-0.20;1.00;196.50;224877.00;;;;4924813;29;20191;-93
2021/12/06 07:02:57;;;;;;;14.50;9.23;;;-0.10;1.00;196.50;224877.00;;;;4924993;29;20211;-92
2021/12/06 07:06:22;;;;;;;15.47;9.30;;;-0.10;1.00;196.50;224877.00;;;;4932503;29;20202;-92
2021/12/06 07:09:10;;;;;;;14.47;9.13;;;-0.10;1.00;196.50;224877.00;;;;4944364;28;20289;-93
2021/12/06 07:11:49;;;;;;;14.40;9.27;;;-0.10;1.00;196.50;224877.00;;;;4941996;29;20206;-91
2021/12/06 07:14:36;;;;;;;24.37;9.63;;;-0.10;1.00;196.50;224877.00;;;;4942253;29;20303;-90
2021/12/06 07:17:25;;;;;;;16.70;9.73;;;0.00;1.00;196.50;224877.00;;;;4942814;29;20198;-92
2021/12/06 07:19:59;;;;;;;19.50;10.23;;;0.00;1.00;196.50;224877.00;;;;4942176;29;20233;-92
2021/12/06 07:22:38;;;;;;;16.93;9.80;;;-0.10;1.00;196.50;224877.00;;;;4941765;29;20555;-91
2021/12/06 07:25:09;;;;;;;18.57;9.20;;;-0.10;1.00;196.50;224877.00;;;;4941962;29;20552;-92
2021/12/06 07:27:36;;;;;;;16.20;10.50;;;0.00;1.00;196.50;224877.00;;;;4926089;29;20545;-91
2021/12/06 07:30:07;;;;;;;17.60;11.10;;;0.00;1.00;196.50;224877.00;;;;4941990;29;20257;-94
2021/12/06 07:32:54;;;;;;;;;;;;;;;;;;;;;
2021/12/06 07:35:29;;;;;;;18.33;10.03;;;0.00;1.00;196.50;224877.00;;;;4957212;29;20282;-92
2021/12/06 07:38:00;;;;;;;17.53;10.03;;;0.00;1.00;196.50;224877.00;;;;4942605;29;20267;-92
2021/12/06 07:40:28;;;;;;;14.33;9.60;;;0.00;1.00;196.50;224877.00;;;;4941311;29;20319;-91
2021/12/06 07:42:58;;;;;;;17.03;9.37;;;-0.10;1.00;196.50;224877.00;;;;4942419;29;20200;-92
2021/12/06 07:45:31;;;;;;;20.77;9.90;;;0.00;1.00;196.50;224877.00;;;;4942144;29;20298;-92
2021/12/06 07:48:13;;;;;;;17.83;10.40;;;0.00;1.00;196.50;224877.00;;;;4957923;29;20278;-93
2021/12/06 07:51:05;;;;;;;17.80;10.37;;;0.00;1.00;196.50;224877.00;;;;4957971;29;20687;-92
2021/12/06 07:53:38;;;;;;;17.67;10.20;;;0.00;1.00;196.50;224877.00;;;;4941899;29;20203;-91
2021/12/06 07:56:17;;;;;;;18.67;9.83;;;0.00;1.00;196.50;224877.00;;;;4941405;29;20227;-92
2021/12/06 07:58:52;;;;;;;16.60;10.60;;;0.00;1.00;196.50;224877.00;;;;4941294;29;20605;-93
2021/12/06 08:01:24;;;;;;;17.97;9.20;;;0.10;1.00;196.50;224877.00;;;;4942147;29;20659;-92
2021/12/06 08:04:01;;;;;;;19.00;9.80;;;0.10;1.00;196.50;224877.00;;;;4940953;29;20227;-92
2021/12/06 08:06:37;;;;;;;23.63;9.70;;;0.10;1.00;196.50;224877.00;;;;4941787;29;20223;-91
2021/12/06 08:09:18;;;;;;;17.53;8.57;;;0.10;1.00;196.50;224877.00;;;;4956986;29;20230;-91
2021/12/06 08:11:55;;;;;;;15.17;8.67;;;0.10;1.00;196.50;224877.00;;;;4942034;29;20721;-91
2021/12/06 08:14:26;;;;;;;13.63;8.50;;;0.20;1.00;196.50;224877.00;;;;4936363;29;20797;-90
2021/12/06 08:16:55;;;;;;;23.00;8.97;;;0.20;1.00;196.50;224877.00;;;;4921307;29;20227;-91
2021/12/06 08:19:24;;;;;;;14.40;7.97;;;0.20;1.00;196.50;224877.00;;;;4938921;29;20204;-91
2021/12/06 08:21:52;;;;;;;21.60;8.37;;;0.20;1.00;196.50;224877.00;;;;4936526;29;20227;-91
2021/12/06 08:24:19;;;;;;;19.63;8.43;;;0.20;1.00;196.50;224877.00;;;;4930517;29;20197;-90
2021/12/06 08:26:47;;;;;;;14.33;8.00;;;0.20;1.00;196.50;224877.00;;;;4938890;29;20281;-92
2021/12/06 08:29:16;;;;;;;8.37;6.73;;;0.20;1.00;196.50;224877.00;;;;4939210;29;20672;-91
2021/12/06 08:31:46;;;;;;;9.67;6.30;;;0.20;1.00;196.50;224877.00;;;;4955630;29;20613;-92
2021/12/06 08:34:14;;;;;;;6.87;5.60;;;0.30;1.00;196.50;224877.00;;;;4939050;29;20373;-92
2021/12/06 08:36:41;;;;;;;8.60;5.90;;;0.30;1.00;196.50;224877.00;;;;4939505;29;20255;-91
2021/12/06 08:39:09;;;;;;;9.17;5.23;;;0.50;1.00;196.50;224877.00;;;;4936750;29;20202;-92
2021/12/06 08:41:36;;;;;;;7.37;4.87;;;0.60;1.40;196.50;224877.00;;;;4927391;29;20199;-92
2021/12/06 08:44:06;;;;;;;5.73;4.37;;;0.70;99.90;196.50;224877.00;;;;4940689;29;20568;-88
2021/12/06 08:46:37;;;;;;;5.03;4.20;;;0.80;99.90;196.50;224877.00;;;;4939774;29;20203;-91
2021/12/06 08:49:09;;;;;;;5.77;3.80;;;0.90;99.90;196.50;224877.00;;;;4939885;29;20290;-92
2021/12/06 08:52:16;;;;;;;5.20;3.60;;;1.00;99.90;196.50;224877.00;;;;4939669;29;20662;-90
2021/12/06 08:54:49;;;;;;;5.87;3.50;;;1.30;99.90;196.50;224877.00;;;;4939288;29;20218;-89
2021/12/06 08:57:21;;;;;;;8.03;3.70;;;1.60;1.00;196.50;224877.00;;;;4956395;28;20211;-90
2021/12/06 09:00:07;;;;;;;6.10;3.10;;;1.90;1.00;196.50;224877.00;;;;4955352;29;20201;-90
2021/12/06 09:03:05;;;;;;;7.00;2.90;;;2.10;99.90;196.50;224877.00;;;;4955884;29;20241;-89
2021/12/06 09:05:54;;;;;;;5.53;3.37;;;2.30;99.90;196.50;224877.00;;;;4941425;29;20203;-89
2021/12/06 09:08:24;;;;;;;5.33;3.00;;;2.20;1.00;196.50;224877.00;;;;4923652;29;20203;-89
2021/12/06 09:10:53;;;;;;;27.80;17.50;;;2.10;1.00;196.50;224877.00;;;;4939053;29;20743;-89
2021/12/06 09:13:44;;;;;;;6.13;4.57;;;2.10;1.00;196.50;224877.00;;;;4956986;28;20656;-90
2021/12/06 09:16:16;;;;;;;5.73;3.40;;;2.00;1.00;196.50;224877.00;;;;4944168;28;20227;-89
2021/12/06 09:18:45;;;;;;;4.03;3.63;;;1.90;1.00;196.50;224877.00;;;;4937271;29;20695;-89
2021/12/06 09:21:18;;;;;;;6.30;3.80;;;1.70;1.00;196.50;224877.00;;;;4922055;28;20294;-89
2021/12/06 09:23:50;;;;;;;6.23;4.87;;;1.60;1.00;196.50;224877.00;;;;4937821;29;20314;-88
2021/12/06 09:26:17;;;;;;;23.93;13.83;;;1.50;1.00;196.50;224877.00;;;;4937354;28;20710;-88
2021/12/06 09:28:45;;;;;;;8.87;5.83;;;1.50;1.00;196.50;224877.00;;;;4921131;29;20206;-91
2021/12/06 09:31:15;;;;;;;6.33;4.30;;;1.50;1.00;196.50;224877.00;;;;4936950;28;20234;-90
2021/12/06 09:33:43;;;;;;;5.13;4.00;;;1.50;1.00;196.50;224877.00;;;;4933780;29;20698;-89
2021/12/06 09:36:12;;;;;;;4.33;3.60;;;1.50;1.00;196.50;224877.00;;;;4949923;29;20219;-88
2021/12/06 09:38:41;;;;;;;4.23;3.83;;;1.50;1.00;196.50;224877.00;;;;4934141;29;20208;-89
2021/12/06 09:41:21;;;;;;;3.67;3.23;;;1.30;1.00;196.50;224877.00;;;;4902935;29;20687;-89
2021/12/06 09:43:51;;;;;;;3.60;3.27;;;1.30;1.00;196.50;224877.00;;;;4934255;29;20196;-90
2021/12/06 09:46:20;;;;;;;5.07;3.33;;;1.30;1.00;196.50;224877.00;;;;4937786;29;20232;-89
2021/12/06 09:48:49;;;;;;;4.73;3.50;;;1.30;1.00;196.50;224877.00;;;;4906637;29;20577;-91
2021/12/06 09:51:25;;;;;;;6.03;3.73;;;1.30;1.00;196.50;224877.00;;;;4930304;29;20623;-90
2021/12/06 09:53:56;;;;;;;4.77;3.17;;;1.50;1.00;196.50;224877.00;;;;4974010;28;20266;-90
2021/12/06 09:56:38;;;;;;;3.73;3.00;;;1.70;1.00;196.50;224877.00;;;;4942143;29;20227;-88
2021/12/06 09:59:11;;;;;;;5.53;3.13;;;1.80;1.00;196.50;224877.00;;;;4942296;29;20730;-90
2021/12/06 10:01:58;;;;;;;5.90;3.00;;;1.90;1.00;196.50;224877.00;;;;4941793;29;20242;-89
2021/12/06 10:04:34;;;;;;;3.33;2.80;;;2.10;1.00;196.50;224877.00;;;;4942032;29;20213;-89
2021/12/06 10:07:02;;;;;;;3.50;3.10;;;2.30;99.90;196.50;224877.00;;;;4941470;29;20205;-87
2021/12/06 10:09:30;;;;;;;4.30;2.90;;;2.40;99.90;196.50;224877.00;;;;4957755;29;20222;-87
2021/12/06 10:11:58;;;;;;;3.80;3.00;;;2.50;99.90;196.50;224877.00;;;;4941576;29;20297;-90
2021/12/06 10:14:25;;;;;;;4.87;2.83;;;2.60;99.90;196.50;224877.00;;;;4956792;29;20231;-85
2021/12/06 10:16:53;;;;;;;5.03;2.40;;;2.60;99.90;196.50;224877.00;;;;4940172;29;20219;-86
2021/12/06 10:19:21;;;;;;;2.90;2.60;;;2.80;99.90;196.50;224877.00;;;;4956940;29;20295;-88
2021/12/06 10:21:48;;;;;;;3.00;2.10;;;3.70;99.90;196.50;224877.00;;;;4941091;29;20194;-85
2021/12/06 10:24:21;;;;;;;3.40;2.37;;;4.70;1.00;196.50;224877.00;;;;4940693;29;20206;-85
2021/12/06 10:26:51;;;;;;;2.37;1.90;;;5.40;99.90;196.50;224877.00;;;;4940318;29;20281;-86
2021/12/06 10:29:22;;;;;;;2.00;1.80;;;6.40;33.50;196.50;224877.00;;;;4925536;29;20658;-85
2021/12/06 10:31:54;;;;;;;2.35;2.00;;;7.50;1.00;196.50;224877.00;;;;4936322;29;20210;-86
2021/12/06 10:34:27;;;;;;;1.80;1.70;;;8.20;99.90;196.50;224877.00;;;;4954645;28;20214;-87
2021/12/06 10:36:56;;;;;;;2.20;1.75;;;8.60;1.00;196.50;224877.00;;;;4952939;28;20215;-85
2021/12/06 10:39:24;;;;;;;2.45;2.00;;;9.10;1.00;196.50;224877.00;;;;4953389;28;20666;-85
2021/12/06 10:41:58;;;;;;;2.25;1.80;;;9.20;1.00;196.50;224877.00;;;;4937308;29;20666;-88
2021/12/06 10:44:25;;;;;;;2.25;1.88;;;9.20;1.00;196.50;224877.00;;;;4937633;29;20200;-84
2021/12/06 10:46:54;;;;;;;1.80;1.70;;;9.40;1.00;196.50;224877.00;;;;4937707;29;20349;-86
2021/12/06 10:49:25;;;;;;;2.53;1.75;;;9.50;99.90;196.50;224877.00;;;;4937672;29;20298;-86
2021/12/06 10:51:53;;;;;;;3.08;2.00;;;9.80;1.00;196.50;224877.00;;;;4922330;29;20563;-87
2021/12/06 10:54:35;;;;;;;2.65;1.75;;;9.80;99.90;196.50;224877.00;;;;4962575;28;20234;-85
2021/12/06 10:57:07;;;;;;;3.20;2.00;;;9.60;99.90;196.50;224877.00;;;;4954425;28;20232;-86
2021/12/06 10:59:39;;;;;;;3.53;1.98;;;9.80;99.90;196.50;224877.00;;;;4970157;28;20207;-86
2021/12/06 11:02:13;;;;;;;1.95;1.73;;;9.60;99.90;196.50;224877.00;;;;4953697;28;20238;-85
2021/12/06 11:04:42;;;;;;;1.80;1.60;;;9.40;99.90;196.50;224877.00;;;;4937619;28;20196;-86
2021/12/06 11:07:10;;;;;;;2.10;1.90;;;9.10;99.90;196.50;224877.00;;;;4953032;28;20242;-85
2021/12/06 11:09:46;;;;;;;1.90;1.70;;;8.40;99.90;196.50;224877.00;;;;4921876;29;20272;-86
2021/12/06 11:12:19;;;;;;;1.83;1.65;;;8.30;1.00;196.50;224877.00;;;;4937647;29;20290;-85
2021/12/06 11:14:49;;;;;;;1.60;1.50;;;8.20;1.00;196.50;224877.00;;;;4936342;29;20266;-88
2021/12/06 11:17:19;;;;;;;2.72;1.90;;;8.00;1.00;196.50;224877.00;;;;4920868;29;20219;-85
2021/12/06 11:19:51;;;;;;;1.95;1.65;;;7.80;1.00;196.50;224877.00;;;;4952818;29;20199;-86
2021/12/06 11:22:25;;;;;;;1.88;1.30;;;8.00;1.00;196.50;224877.00;;;;4921035;29;20213;-87
2021/12/06 11:24:55;;;;;;;2.65;1.60;;;8.10;1.00;196.50;224877.00;;;;4953155;28;20199;-88